createdAt,value
2022-08-18T00:02:36.723Z,20.93
2022-08-18T00:07:39.502Z,20.92
2022-08-18T00:12:49.065Z,20.79
2022-08-18T00:17:50.999Z,20.70
2022-08-18T00:22:53.265Z,20.58
2022-08-18T00:27:55.044Z,20.47
2022-08-18T00:32:59.080Z,20.45
2022-08-18T00:38:03.351Z,20.40
2022-08-18T00:43:07.778Z,20.35
2022-08-18T00:48:11.283Z,20.38
2022-08-18T00:53:29.451Z,20.30
2022-08-18T00:58:37.077Z,20.21
2022-08-18T01:03:41.296Z,20.20
2022-08-18T01:08:43.601Z,20.26
2022-08-18T01:13:45.903Z,20.29
2022-08-18T01:19:06.069Z,20.23
2022-08-18T01:24:12.961Z,20.19
2022-08-18T01:29:18.855Z,20.22
2022-08-18T01:34:24.536Z,20.23
2022-08-18T01:41:21.185Z,20.32
2022-08-18T01:44:51.108Z,20.36
2022-08-18T01:49:53.423Z,20.39
2022-08-18T01:54:57.834Z,20.57
2022-08-18T02:00:01.090Z,20.72
2022-08-18T02:05:08.400Z,20.81
2022-08-18T02:10:12.151Z,20.89
2022-08-18T02:15:14.118Z,20.84
2022-08-18T02:20:17.978Z,20.85
2022-08-18T02:25:19.955Z,20.91
2022-08-18T02:30:22.025Z,21.04
2022-08-18T02:35:23.753Z,21.11
2022-08-18T02:40:25.453Z,21.11
2022-08-18T02:45:27.112Z,21.12
2022-08-18T02:50:28.931Z,21.13
2022-08-18T02:55:31.045Z,21.09
2022-08-18T03:00:32.718Z,21.08
2022-08-18T03:05:34.680Z,21.04
2022-08-18T03:10:36.341Z,20.89
2022-08-18T03:15:37.961Z,20.93
2022-08-18T03:20:39.685Z,20.79
2022-08-18T03:25:45.618Z,20.79
2022-08-18T03:30:47.326Z,20.81
2022-08-18T03:35:49.057Z,20.84
2022-08-18T03:40:52.720Z,20.79
2022-08-18T03:45:54.770Z,20.74
2022-08-18T03:51:05.475Z,20.68
2022-08-18T03:56:16.090Z,20.70
2022-08-18T04:01:25.278Z,20.58
2022-08-18T04:06:32.849Z,20.55
2022-08-18T04:11:37.256Z,20.53
2022-08-18T04:16:40.549Z,20.42
2022-08-18T04:21:42.797Z,20.40
2022-08-18T04:26:47.046Z,20.28
2022-08-18T04:31:50.336Z,20.20
2022-08-18T04:36:54.870Z,20.22
2022-08-18T04:41:56.649Z,20.25
2022-08-18T04:47:00.322Z,20.27
2022-08-18T04:52:39.687Z,20.36
2022-08-18T04:57:43.099Z,20.42
2022-08-18T05:02:44.835Z,20.44
2022-08-18T05:07:47.354Z,20.47
2022-08-18T05:12:49.553Z,20.54
2022-08-18T05:17:51.361Z,20.45
2022-08-18T05:22:53.083Z,20.39
2022-08-18T05:27:54.731Z,20.41
2022-08-18T05:32:56.533Z,20.47
2022-08-18T05:38:35.199Z,20.44
2022-08-18T05:43:40.682Z,20.36
2022-08-18T05:48:53.501Z,20.53
2022-08-18T05:54:14.377Z,20.57
2022-08-18T05:59:45.673Z,20.50
2022-08-18T06:04:57.008Z,20.44
2022-08-18T06:09:59.049Z,20.36
2022-08-18T06:15:23.079Z,20.51
2022-08-18T06:20:53.478Z,20.60
2022-08-18T06:26:11.072Z,20.62
2022-08-18T06:31:29.645Z,20.80
2022-08-18T06:36:39.318Z,20.89
2022-08-18T06:41:48.979Z,20.89
2022-08-18T06:47:04.167Z,20.86
2022-08-18T06:52:31.225Z,20.97
2022-08-18T06:57:38.160Z,21.08
2022-08-18T07:02:55.707Z,21.26
2022-08-18T07:08:10.460Z,21.40
2022-08-18T07:13:17.289Z,21.39
2022-08-18T07:18:29.911Z,21.37
2022-08-18T07:23:40.724Z,21.50
2022-08-18T07:28:48.314Z,21.50
2022-08-18T07:34:01.189Z,21.49
2022-08-18T07:39:11.130Z,21.59
2022-08-18T07:44:33.860Z,21.73
2022-08-18T07:49:37.142Z,21.75
2022-08-18T07:55:06.215Z,21.83
2022-08-18T08:00:47.736Z,22.02
2022-08-18T08:05:56.365Z,22.10
2022-08-18T08:10:59.256Z,22.17
2022-08-18T08:16:23.113Z,22.29
2022-08-18T08:21:31.794Z,22.29
2022-08-18T08:26:57.297Z,22.39
2022-08-18T08:32:05.357Z,22.45
2022-08-18T08:37:14.853Z,22.57
2022-08-18T08:42:30.978Z,22.59
2022-08-18T08:48:08.738Z,22.85
2022-08-18T08:53:21.234Z,22.84
2022-08-18T08:58:37.558Z,22.95
2022-08-18T09:03:53.258Z,23.05
2022-08-18T09:09:06.241Z,23.13
2022-08-18T09:14:32.389Z,23.18
2022-08-18T09:19:52.728Z,23.15
2022-08-18T09:24:55.785Z,23.35
2022-08-18T09:30:03.359Z,23.43
2022-08-18T09:35:44.071Z,23.54
2022-08-18T09:41:12.705Z,23.65
2022-08-18T09:46:42.382Z,23.85
2022-08-18T09:51:45.503Z,24.00
2022-08-18T09:56:53.882Z,24.09
2022-08-18T10:01:57.557Z,24.25
2022-08-18T10:07:44.018Z,24.58
2022-08-18T10:13:16.154Z,24.56
2022-08-18T10:18:53.251Z,24.44
2022-08-18T10:29:23.826Z,24.65
2022-08-18T10:34:51.584Z,24.77
2022-08-18T10:40:10.104Z,24.92
2022-08-18T10:45:35.013Z,25.04
2022-08-18T10:51:15.349Z,25.25
2022-08-18T10:56:30.317Z,25.47
2022-08-18T11:01:35.562Z,25.65
2022-08-18T11:06:44.045Z,25.80
2022-08-18T11:11:59.436Z,25.89
2022-08-18T11:17:11.530Z,26.06
2022-08-18T11:22:34.365Z,26.15
2022-08-18T11:27:46.917Z,26.32
2022-08-18T11:32:51.960Z,26.48
2022-08-18T11:38:05.245Z,26.61
2022-08-18T11:43:10.436Z,26.79
2022-08-18T11:48:37.755Z,27.16
2022-08-18T11:54:18.527Z,27.28
2022-08-18T12:04:53.449Z,27.24
2022-08-18T12:10:19.903Z,27.06
2022-08-18T12:15:44.326Z,27.37
2022-08-18T12:20:49.593Z,27.60
2022-08-18T12:25:53.019Z,27.68
2022-08-18T12:30:56.234Z,27.80
2022-08-18T12:35:59.149Z,27.73
2022-08-18T12:41:01.646Z,27.86
2022-08-18T12:46:06.453Z,27.95
2022-08-18T12:51:14.237Z,28.07
2022-08-18T12:56:22.173Z,28.25
2022-08-18T13:01:27.676Z,28.14
2022-08-18T13:06:31.166Z,28.27
2022-08-18T13:11:33.151Z,28.12
2022-08-18T13:16:54.076Z,28.23
2022-08-18T13:21:57.241Z,28.53
2022-08-18T13:26:59.164Z,28.60
2022-08-18T13:32:00.867Z,28.83
2022-08-18T13:37:02.690Z,28.70
2022-08-18T13:42:21.557Z,28.47
2022-08-18T13:47:28.378Z,28.34
2022-08-18T13:52:34.674Z,28.43
2022-08-18T13:57:39.687Z,28.40
2022-08-18T14:02:42.222Z,28.52
2022-08-18T14:07:45.455Z,28.55
2022-08-18T14:12:47.462Z,28.49
2022-08-18T14:17:51.662Z,28.57
2022-08-18T14:23:23.872Z,28.69
2022-08-18T14:28:31.896Z,28.63
2022-08-18T14:33:51.723Z,28.65
2022-08-18T14:38:55.444Z,28.60
2022-08-18T14:44:11.866Z,28.59
2022-08-18T14:49:15.531Z,28.58
2022-08-18T14:54:32.306Z,28.59
2022-08-18T14:59:34.675Z,28.50
2022-08-18T15:04:56.073Z,28.51
2022-08-18T15:10:14.481Z,28.40
2022-08-18T15:15:18.497Z,28.53
2022-08-18T15:20:28.652Z,28.61
2022-08-18T15:25:44.852Z,28.62
2022-08-18T15:30:51.216Z,28.61
2022-08-18T15:35:53.541Z,28.54
2022-08-18T15:40:58.250Z,28.46
2022-08-18T15:46:00.846Z,28.40
2022-08-18T15:51:11.493Z,28.30
2022-08-18T15:56:16.477Z,28.25
2022-08-18T16:01:30.381Z,28.13
2022-08-18T16:06:37.325Z,28.02
2022-08-18T16:11:41.227Z,27.94
2022-08-18T16:16:42.918Z,27.85
2022-08-18T16:21:44.562Z,27.67
2022-08-18T16:26:46.339Z,27.58
2022-08-18T16:31:48.964Z,27.53
2022-08-18T16:36:50.724Z,27.46
2022-08-18T16:41:52.508Z,27.44
2022-08-18T16:46:54.201Z,27.43
2022-08-18T16:51:56.079Z,27.37
2022-08-18T16:56:58.428Z,27.31
2022-08-18T17:02:18.828Z,27.16
2022-08-18T17:07:20.607Z,27.02
2022-08-18T17:12:23.056Z,26.85
2022-08-18T17:17:25.015Z,26.65
2022-08-18T17:22:26.867Z,26.59
2022-08-18T17:27:37.809Z,26.53
2022-08-18T17:32:42.768Z,26.37
2022-08-18T17:37:52.088Z,26.24
2022-08-18T17:42:55.271Z,26.14
2022-08-18T17:48:04.418Z,26.08
2022-08-18T17:53:06.555Z,25.99
2022-08-18T17:58:30.741Z,25.83
2022-08-18T18:03:34.013Z,25.80
2022-08-18T18:08:50.620Z,25.68
2022-08-18T18:13:52.573Z,25.53
2022-08-18T18:19:00.909Z,25.31
2022-08-18T18:24:06.007Z,25.10
2022-08-18T18:29:19.193Z,25.03
2022-08-18T18:34:31.757Z,24.93
2022-08-18T18:39:35.961Z,24.80
2022-08-18T18:44:37.725Z,24.61
2022-08-18T18:50:04.858Z,24.49
2022-08-18T18:55:15.228Z,24.40
2022-08-18T19:00:19.938Z,24.27
2022-08-18T19:05:44.707Z,24.21
2022-08-18T19:10:57.408Z,24.08
2022-08-18T19:16:09.584Z,23.87
2022-08-18T19:22:05.034Z,23.60
2022-08-18T19:26:48.682Z,23.47
2022-08-18T19:32:01.171Z,23.46
2022-08-18T19:37:31.334Z,23.34
2022-08-18T19:42:42.949Z,23.23
2022-08-18T19:48:05.113Z,23.21
2022-08-18T19:53:31.396Z,23.16
2022-08-18T20:04:51.545Z,22.98
2022-08-18T20:10:08.388Z,22.96
2022-08-18T20:15:16.728Z,23.03
2022-08-18T20:20:18.640Z,23.08
2022-08-18T20:25:23.503Z,23.00
2022-08-18T20:30:47.917Z,22.91
2022-08-18T20:36:13.873Z,22.81
2022-08-18T20:41:39.559Z,22.72
2022-08-18T20:46:47.352Z,22.53
2022-08-18T20:51:57.877Z,22.45
2022-08-18T20:57:02.665Z,22.45
2022-08-18T21:02:24.519Z,22.31
2022-08-18T21:07:37.877Z,22.11
2022-08-18T21:12:52.173Z,22.04
2022-08-18T21:18:03.788Z,22.01
2022-08-18T21:23:12.000Z,21.85
2022-08-18T21:28:13.821Z,21.78
2022-08-18T21:33:21.004Z,21.67
2022-08-18T21:38:28.656Z,21.67
2022-08-18T21:43:49.162Z,21.65
2022-08-18T21:48:54.781Z,21.59
2022-08-18T21:53:58.516Z,21.30
2022-08-18T21:59:12.995Z,21.05
2022-08-18T22:04:24.271Z,21.00
2022-08-18T22:09:48.312Z,20.93
2022-08-18T22:14:54.774Z,20.88
2022-08-18T22:20:35.058Z,20.82
2022-08-18T22:25:36.768Z,20.82
2022-08-18T22:30:38.494Z,20.79
2022-08-18T22:35:40.470Z,20.74
2022-08-18T22:40:42.188Z,20.80
2022-08-18T22:45:43.873Z,20.82
2022-08-18T22:50:46.261Z,20.91
2022-08-18T22:55:49.282Z,20.95
2022-08-18T23:00:52.640Z,20.90
2022-08-18T23:06:11.499Z,20.78
2022-08-18T23:11:13.238Z,20.68
2022-08-18T23:16:31.968Z,20.63
2022-08-18T23:21:35.797Z,20.62
2022-08-18T23:26:38.179Z,20.61
2022-08-18T23:31:41.944Z,20.65
2022-08-18T23:36:45.970Z,20.63
2022-08-18T23:41:47.852Z,20.60
2022-08-18T23:46:51.015Z,20.57
2022-08-18T23:51:55.904Z,20.55
2022-08-18T23:56:58.042Z,20.56
